Time;durP1;ratioP1;P1;durP2;ratioP2;P2;SDS_P1;SDS_P2;PMS_P1;PMS_P2;Temp;Humidity;BMP_temperature;BMP_pressure;BME280_temperature;BME280_humidity;BME280_pressure;Samples;Min_cycle;Max_cycle;Signal;HPM_P1;HPM_P2
2021/03/10 00:00:55;;;;;;;23.65;13.10;;;;;;;2.26;61.99;97999.84;5030969;28;20001;-75
2021/03/10 00:03:20;;;;;;;21.85;13.52;;;;;;;2.20;61.96;97995.41;5032649;28;20393;-75
2021/03/10 00:05:46;;;;;;;22.42;13.75;;;;;;;2.21;61.62;97997.06;5033820;28;20025;-75
2021/03/10 00:08:12;;;;;;;;;;;;;;;2.23;62.46;98006.53;5034487;28;20036;-76
2021/03/10 00:10:37;;;;;;;21.30;12.27;;;;;;;2.49;61.79;98008.66;5033992;28;19924;-76
2021/03/10 00:13:03;;;;;;;18.70;11.68;;;;;;;2.28;61.54;98003.13;5034140;28;20460;-76
2021/03/10 00:15:28;;;;;;;21.15;11.77;;;;;;;2.31;61.82;98000.78;5033677;28;20108;-76
2021/03/10 00:17:54;;;;;;;;;;;;;;;2.36;61.68;98000.03;5034732;28;20025;-76
2021/03/10 00:20:19;;;;;;;20.45;12.70;;;;;;;2.25;61.02;98007.13;5034061;28;19920;-75
2021/03/10 00:22:44;;;;;;;;;;;;;;;2.29;60.92;98004.78;5035002;28;20492;-76
2021/03/10 00:25:10;;;;;;;21.30;12.15;;;;;;;2.30;60.86;98009.09;5034584;28;19916;-75
2021/03/10 00:27:36;;;;;;;19.83;10.30;;;;;;;2.29;60.89;98005.56;5034201;28;20060;-75
2021/03/10 00:30:05;;;;;;;20.30;11.20;;;;;;;2.33;61.01;98006.75;5033920;28;20463;-76
2021/03/10 00:32:31;;;;;;;19.17;10.35;;;;;;;2.23;60.85;98005.72;5033601;28;20026;-75
2021/03/10 00:34:56;;;;;;;20.77;10.88;;;;;;;2.27;61.36;97999.63;5033673;28;20493;-75
2021/03/10 00:37:23;;;;;;;18.65;10.73;;;;;;;2.31;61.36;97997.25;5033711;28;20565;-76
2021/03/10 00:39:50;;;;;;;18.25;10.52;;;;;;;2.27;61.22;98004.19;5033614;28;20034;-75
2021/03/10 00:42:16;;;;;;;22.17;11.00;;;;;;;2.27;61.55;98004.19;5033892;28;20116;-75
2021/03/10 00:44:41;;;;;;;23.23;12.23;;;;;;;2.27;61.48;98001.50;5033487;28;20041;-75
2021/03/10 00:47:07;;;;;;;19.00;10.20;;;;;;;2.17;62.04;97996.72;5033826;28;20076;-75
2021/03/10 00:49:34;;;;;;;20.23;11.98;;;;;;;2.14;62.29;98006.13;5033782;28;20061;-75
2021/03/10 00:51:59;;;;;;;20.17;11.27;;;;;;;2.05;62.50;97999.47;5042183;28;20547;-75
2021/03/10 00:54:25;;;;;;;19.38;10.85;;;;;;;2.09;62.96;98005.19;5053538;28;20029;-75
2021/03/10 00:56:51;;;;;;;21.40;13.07;;;;;;;1.96;63.66;98000.91;5053651;28;20517;-75
2021/03/10 00:59:16;;;;;;;23.17;11.75;;;;;;;1.87;64.17;98002.34;5053200;28;20037;-75
2021/03/10 01:01:42;;;;;;;25.33;12.73;;;;;;;1.81;64.37;97999.78;5053292;28;20085;-75
2021/03/10 01:04:07;;;;;;;19.40;11.48;;;;;;;1.76;65.13;97999.66;5053584;28;20033;-74
2021/03/10 01:06:33;;;;;;;22.73;12.07;;;;;;;1.74;65.15;98008.00;5053608;28;20135;-75
2021/03/10 01:08:58;;;;;;;17.58;12.43;;;;;;;1.76;64.86;98000.47;5052941;28;20025;-76
2021/03/10 01:11:24;;;;;;;24.85;12.68;;;;;;;1.67;65.31;97993.00;5053083;28;20375;-76
2021/03/10 01:13:49;;;;;;;;;;;;;;;1.66;65.91;98004.84;5052845;28;20108;-75
2021/03/10 01:16:15;;;;;;;20.60;12.85;;;;;;;1.56;66.25;98008.16;5053493;28;19909;-75
2021/03/10 01:18:41;;;;;;;17.98;10.43;;;;;;;1.61;66.58;98002.84;5053628;28;20029;-75
2021/03/10 01:21:06;;;;;;;;;;;;;;;1.51;66.73;97997.25;5054553;28;20049;-75
2021/03/10 01:23:32;;;;;;;21.48;11.50;;;;;;;1.38;66.84;97994.81;5055125;28;19912;-75
2021/03/10 01:25:57;;;;;;;;;;;;;;;1.25;67.23;97992.34;5057759;28;20025;-76
2021/03/10 01:28:23;;;;;;;20.38;11.32;;;;;;;1.14;67.77;97993.16;5056425;28;20425;-75
2021/03/10 01:30:48;;;;;;;;;;;;;;;1.17;68.00;97995.38;5053426;28;20025;-76
2021/03/10 01:33:13;;;;;;;18.58;11.32;;;;;;;1.23;68.23;97995.28;5052743;28;19923;-76
2021/03/10 01:35:39;;;;;;;;;;;;;;;1.16;68.44;97993.78;5053119;28;20037;-76
2021/03/10 01:38:05;;;;;;;21.90;11.77;;;;;;;1.16;68.49;97988.38;5052856;28;19964;-75
2021/03/10 01:40:30;;;;;;;28.13;13.13;;;;;;;0.95;68.72;97977.13;5053059;28;20040;-76
2021/03/10 01:43:00;;;;;;;;;;;;;;;0.98;69.36;97983.91;5050490;28;20033;-76
2021/03/10 01:45:25;;;;;;;22.15;11.80;;;;;;;1.08;69.30;97984.97;5050131;28;20388;-75
2021/03/10 01:47:51;;;;;;;22.55;11.90;;;;;;;1.01;68.99;97992.34;5047657;28;20056;-75
2021/03/10 01:50:17;;;;;;;;;;;;;;;1.04;69.24;97989.19;5043739;28;20773;-76
2021/03/10 01:52:43;;;;;;;22.13;11.10;;;;;;;0.92;69.26;97980.28;5052270;28;19913;-76
2021/03/10 01:55:09;;;;;;;23.85;11.63;;;;;;;0.92;69.17;97984.84;5034625;28;20385;-76
2021/03/10 01:57:35;;;;;;;19.45;11.95;;;;;;;0.84;69.50;97988.72;5032893;28;20025;-76
2021/03/10 02:00:01;;;;;;;19.02;11.65;;;;;;;0.82;70.16;97988.09;5032792;28;20489;-75
2021/03/10 02:02:26;;;;;;;19.33;12.73;;;;;;;0.78;69.73;97980.75;5033454;28;20069;-76
2021/03/10 02:04:52;;;;;;;18.33;11.57;;;;;;;0.68;70.21;97977.81;5043135;28;20028;-76
2021/03/10 02:07:17;;;;;;;;;;;;;;;0.73;70.19;97984.13;5041017;28;20527;-74
2021/03/10 02:10:01;;;;;;;21.95;11.45;;;;;;;0.66;70.79;97983.41;5049238;28;20014;-76
2021/03/10 02:12:45;;;;;;;22.63;11.02;;;;;;;0.59;70.67;97988.09;5043947;28;20033;-76
2021/03/10 02:15:27;;;;;;;20.40;12.40;;;;;;;0.56;71.13;97980.47;5039807;28;20025;-75
2021/03/10 02:18:01;;;;;;;24.40;11.13;;;;;;;0.60;71.16;97981.63;5031140;28;20021;-75
2021/03/10 02:20:37;;;;;;;23.05;12.18;;;;;;;0.70;70.90;97973.81;5031121;28;20030;-76
2021/03/10 02:23:14;;;;;;;21.63;11.77;;;;;;;0.68;70.84;97969.72;5031053;28;20018;-76
2021/03/10 02:26:12;;;;;;;20.80;12.88;;;;;;;0.50;71.39;97973.34;5030883;28;20022;-75
2021/03/10 02:28:40;;;;;;;20.67;12.30;;;;;;;0.46;71.56;97978.34;5031362;28;20080;-76
2021/03/10 02:31:07;;;;;;;22.17;11.75;;;;;;;0.28;72.69;97977.59;5031193;28;20032;-75
2021/03/10 02:33:35;;;;;;;20.25;12.63;;;;;;;0.18;73.08;97975.47;5031215;28;20022;-75
2021/03/10 02:36:05;;;;;;;24.05;12.48;;;;;;;0.16;73.36;97982.13;5030983;28;20036;-75
2021/03/10 02:38:31;;;;;;;20.70;12.65;;;;;;;0.26;73.55;97987.75;5030893;28;20048;-75
2021/03/10 02:40:57;;;;;;;20.90;12.27;;;;;;;0.16;73.64;97980.22;5035137;28;20036;-75
2021/03/10 02:43:24;;;;;;;19.85;11.60;;;;;;;0.26;73.71;97987.75;5036584;28;20022;-75
2021/03/10 02:45:51;;;;;;;22.73;12.98;;;;;;;0.06;74.48;97987.22;5030819;28;20029;-76
2021/03/10 02:48:17;;;;;;;23.05;11.85;;;;;;;-0.11;75.29;97982.47;5030773;28;20033;-75
2021/03/10 02:50:43;;;;;;;20.63;12.32;;;;;;;0.04;74.91;97983.91;5031043;28;20021;-75
2021/03/10 02:53:09;;;;;;;21.13;12.73;;;;;;;-0.03;75.17;97990.22;5031463;28;20034;-75
2021/03/10 02:55:39;;;;;;;22.35;12.13;;;;;;;0.05;74.82;97990.94;5031097;28;20470;-76
2021/03/10 02:58:07;;;;;;;24.15;13.43;;;;;;;0.08;74.64;97995.88;5030067;28;20045;-75
2021/03/10 03:00:33;;;;;;;22.45;13.45;;;;;;;-0.03;75.20;97992.06;5030478;28;20025;-76
2021/03/10 03:02:58;;;;;;;30.58;13.18;;;;;;;-0.07;75.05;97991.72;5030692;28;20034;-75
2021/03/10 03:05:24;;;;;;;24.00;13.27;;;;;;;-0.09;75.12;97991.13;5047121;28;20108;-75
2021/03/10 03:07:50;;;;;;;26.92;13.15;;;;;;;-0.17;75.45;97983.38;5050550;28;20028;-76
2021/03/10 03:10:25;;;;;;;19.65;12.25;;;;;;;-0.23;75.76;97981.59;5050160;28;20033;-75
2021/03/10 03:12:52;;;;;;;24.85;12.48;;;;;;;-0.03;75.24;97990.22;5050305;28;20486;-75
2021/03/10 03:15:19;;;;;;;20.92;12.45;;;;;;;-0.19;75.29;97990.81;5050242;28;20032;-74
2021/03/10 03:17:45;;;;;;;22.17;12.50;;;;;;;-0.08;75.23;97995.47;5050369;28;20404;-75
2021/03/10 03:20:12;;;;;;;23.08;12.77;;;;;;;-0.13;75.13;97987.25;5050535;28;20037;-75
2021/03/10 03:22:46;;;;;;;23.23;11.60;;;;;;;-0.05;74.91;97997.69;5045935;28;20029;-74
2021/03/10 03:25:20;;;;;;;25.92;11.98;;;;;;;-0.06;74.79;98006.78;5039638;28;20470;-76
2021/03/10 03:27:49;;;;;;;22.70;12.50;;;;;;;-0.28;75.30;97992.19;5030773;28;20028;-76
2021/03/10 03:30:16;;;;;;;20.65;13.27;;;;;;;-0.20;75.42;97999.94;5030698;28;20402;-75
2021/03/10 03:32:43;;;;;;;17.40;10.90;;;;;;;-0.18;75.24;98013.97;5030416;28;20030;-75
2021/03/10 03:35:11;;;;;;;21.45;11.57;;;;;;;-0.20;75.37;97991.06;5031405;28;20036;-75
2021/03/10 03:37:38;;;;;;;24.92;12.68;;;;;;;-0.33;76.33;98015.41;5032879;28;20131;-77
2021/03/10 03:40:06;;;;;;;25.33;13.18;;;;;;;-0.45;76.49;97999.22;5034911;28;20033;-76
2021/03/10 03:42:32;;;;;;;25.83;13.68;;;;;;;-0.39;76.61;98009.06;5037787;28;20091;-75
2021/03/10 03:44:58;;;;;;;22.20;13.10;;;;;;;-0.49;76.79;98006.06;5038782;28;20037;-76
2021/03/10 03:47:24;;;;;;;23.17;13.02;;;;;;;-0.51;76.87;97993.91;5037657;28;20025;-75
2021/03/10 03:49:50;;;;;;;22.48;11.88;;;;;;;-0.49;76.34;97987.28;5034503;28;20028;-75
2021/03/10 03:52:16;;;;;;;22.00;11.93;;;;;;;-0.60;76.93;97998.78;5034433;28;20501;-76
2021/03/10 03:54:41;;;;;;;22.23;12.00;;;;;;;-0.42;76.50;98004.16;5034582;28;20021;-75
2021/03/10 03:57:08;;;;;;;18.52;11.00;;;;;;;-0.48;76.68;98012.28;5033445;28;20030;-75
2021/03/10 03:59:33;;;;;;;22.25;12.43;;;;;;;-0.43;76.21;98015.09;5034241;28;20736;-76
2021/03/10 04:01:59;;;;;;;20.65;12.10;;;;;;;-0.57;76.56;98019.81;5033887;28;20033;-75
2021/03/10 04:04:24;;;;;;;21.67;12.70;;;;;;;-0.65;77.08;98028.16;5033888;28;20065;-75
2021/03/10 04:06:50;;;;;;;22.88;11.85;;;;;;;-0.86;77.51;98026.72;5032421;28;20021;-74
2021/03/10 04:09:15;;;;;;;21.95;12.70;;;;;;;-0.64;77.27;98029.78;5033669;28;20029;-75
2021/03/10 04:11:44;;;;;;;23.20;12.38;;;;;;;-0.75;77.23;98014.44;5032301;28;20024;-74
2021/03/10 04:14:10;;;;;;;17.05;12.48;;;;;;;-0.68;77.37;98023.22;5033506;28;20033;-76
2021/03/10 04:16:36;;;;;;;22.63;12.43;;;;;;;-0.57;77.23;98017.13;5033445;28;20386;-75
2021/03/10 04:19:01;;;;;;;24.77;14.60;;;;;;;-0.51;77.03;98035.03;5034190;28;20037;-75
2021/03/10 04:21:27;;;;;;;;;;;;;;;-0.58;77.07;98034.28;5051157;28;20021;-75
2021/03/10 04:23:52;;;;;;;22.02;12.68;;;;;;;-0.61;77.35;98026.66;5051401;28;19967;-75
2021/03/10 04:26:18;;;;;;;22.80;13.18;;;;;;;-0.63;77.39;98034.94;5032399;28;20423;-75
2021/03/10 04:28:43;;;;;;;;;;;;;;;-0.51;77.01;98026.97;5033378;28;20032;-76
2021/03/10 04:31:08;;;;;;;35.72;13.55;;;;;;;-0.34;76.49;98024.50;5032674;28;20416;-75
2021/03/10 04:33:34;;;;;;;;;;;;;;;-0.35;76.54;98031.75;5033540;28;20021;-75
2021/03/10 04:35:59;;;;;;;24.40;12.32;;;;;;;-0.35;76.33;98018.34;5033345;28;20289;-75
2021/03/10 04:38:24;;;;;;;;;;;;;;;-0.29;76.34;98019.28;5032481;28;20037;-76
2021/03/10 04:40:50;;;;;;;22.70;12.40;;;;;;;-0.36;76.40;98016.69;5033524;28;19913;-76
2021/03/10 04:43:15;;;;;;;;;;;;;;;-0.55;76.83;98015.84;5033858;28;20075;-77
2021/03/10 04:45:41;;;;;;;23.73;12.55;;;;;;;-0.52;76.88;98014.59;5033214;28;19920;-75
2021/03/10 04:48:06;;;;;;;22.95;13.00;;;;;;;-0.64;77.17;98019.88;5032820;28;20021;-75
2021/03/10 04:50:32;;;;;;;22.92;13.40;;;;;;;-0.67;77.12;98022.19;5051703;28;20389;-76
2021/03/10 04:52:57;;;;;;;27.55;12.52;;;;;;;-0.53;76.97;98022.88;5052809;28;20028;-76
2021/03/10 04:55:23;;;;;;;25.92;11.80;;;;;;;-0.52;76.80;98017.28;5052872;28;20036;-75
2021/03/10 04:57:48;;;;;;;19.00;11.68;;;;;;;-0.56;76.65;98026.81;5053872;28;20040;-75
2021/03/10 05:00:14;;;;;;;20.52;12.23;;;;;;;-0.65;77.09;98022.78;5051475;28;20021;-75
2021/03/10 05:02:39;;;;;;;;;;;;;;;-0.63;77.20;98020.72;5051963;28;20035;-75
2021/03/10 05:05:06;;;;;;;20.60;11.00;;;;;;;-0.69;77.61;98030.44;5053648;28;20019;-75
2021/03/10 05:07:32;;;;;;;22.08;10.70;;;;;;;-0.65;77.57;98028.97;5051787;28;20033;-76
2021/03/10 05:09:58;;;;;;;24.55;11.55;;;;;;;-0.71;77.65;98037.91;5052353;28;20083;-75
2021/03/10 05:12:23;;;;;;;;;;;;;;;-0.58;77.40;98035.09;5054393;28;20036;-76
2021/03/10 05:14:48;;;;;;;19.77;11.35;;;;;;;-0.69;77.90;98043.09;5054941;28;19919;-77
2021/03/10 05:17:14;;;;;;;;;;;;;;;-0.95;79.28;98037.94;5053465;28;20025;-75
2021/03/10 05:19:39;;;;;;;22.33;12.00;;;;;;;-1.01;79.59;98020.03;5052619;28;19921;-75
2021/03/10 05:22:05;;;;;;;23.48;11.90;;;;;;;-0.89;79.48;98026.31;5050332;28;20045;-75
2021/03/10 05:24:30;;;;;;;25.17;11.45;;;;;;;-0.88;79.24;98023.44;5049424;28;20357;-76
2021/03/10 05:26:55;;;;;;;;;;;;;;;-0.80;78.99;98035.72;5050392;28;20028;-77
2021/03/10 05:29:21;;;;;;;18.75;9.65;;;;;;;-0.89;79.64;98039.75;5051400;28;19916;-74
2021/03/10 05:31:46;;;;;;;22.52;12.73;;;;;;;-0.93;80.41;98035.84;5049105;28;20504;-75
2021/03/10 05:34:12;;;;;;;20.10;12.27;;;;;;;-0.87;79.97;98035.78;5047295;28;20033;-75
2021/03/10 05:36:37;;;;;;;;;;;;;;;-0.91;80.04;98037.31;5051520;28;20020;-76
2021/03/10 05:39:03;;;;;;;22.95;11.55;;;;;;;-0.74;80.00;98042.91;5051030;28;19924;-75
2021/03/10 05:41:30;;;;;;;25.80;13.50;;;;;;;-0.64;78.89;98045.91;5049728;28;20032;-73
2021/03/10 05:43:59;;;;;;;22.27;12.38;;;;;;;-0.70;79.09;98047.63;5050742;28;20048;-74
2021/03/10 05:46:25;;;;;;;18.58;10.18;;;;;;;-0.57;79.28;98052.03;5047709;28;20227;-74
2021/03/10 05:48:52;;;;;;;22.20;12.73;;;;;;;-0.61;79.19;98054.34;5048034;28;20511;-73
2021/03/10 05:51:19;;;;;;;15.82;9.90;;;;;;;-0.60;78.51;98052.50;5050455;28;20772;-76
2021/03/10 05:53:45;;;;;;;19.00;11.93;;;;;;;-0.65;78.38;98052.31;5049778;28;20025;-74
2021/03/10 05:56:10;;;;;;;25.63;11.88;;;;;;;-0.64;77.97;98045.91;5047905;28;20535;-76
2021/03/10 05:58:36;;;;;;;16.38;12.05;;;;;;;-0.52;77.86;98056.72;5043577;28;20024;-76
2021/03/10 06:01:02;;;;;;;24.23;12.75;;;;;;;-0.42;77.28;98054.34;5045565;28;20037;-75
2021/03/10 06:03:27;;;;;;;23.52;13.40;;;;;;;-0.21;76.53;98053.91;5045515;28;20119;-74
2021/03/10 06:06:04;;;;;;;27.55;13.05;;;;;;;-0.30;76.55;98056.09;5045437;28;20116;-76
2021/03/10 06:08:31;;;;;;;18.80;11.38;;;;;;;-0.13;76.22;98057.13;5046732;28;21513;-74
2021/03/10 06:10:57;;;;;;;18.67;10.73;;;;;;;-0.03;75.81;98068.16;5045572;28;20031;-73
2021/03/10 06:13:25;;;;;;;28.48;13.10;;;;;;;0.05;75.58;98077.81;5050773;28;20025;-75
2021/03/10 06:15:52;;;;;;;19.60;11.48;;;;;;;0.06;75.56;98066.00;5051131;28;20042;-75
2021/03/10 06:18:32;;;;;;;24.15;12.13;;;;;;;0.15;74.92;98058.44;5032719;28;20486;-76
2021/03/10 06:21:04;;;;;;;25.88;13.05;;;;;;;0.39;74.42;98073.63;5067637;28;20041;-74
2021/03/10 06:23:29;;;;;;;24.80;12.95;;;;;;;0.61;73.53;98061.31;5038124;28;20075;-76
2021/03/10 06:25:55;;;;;;;21.10;11.55;;;;;;;0.53;73.49;98069.72;5044733;28;20394;-75
2021/03/10 06:28:23;;;;;;;32.58;13.65;;;;;;;0.44;73.81;98073.75;5038229;28;20025;-79
2021/03/10 06:30:49;;;;;;;39.15;17.52;;;;;;;0.73;73.71;98062.19;5030447;28;20033;-78
2021/03/10 06:33:22;;;;;;;28.48;14.63;;;;;;;0.86;72.39;98075.44;5045759;28;20023;-75
2021/03/10 06:35:48;;;;;;;66.40;18.60;;;;;;;0.99;72.79;98080.63;5050239;28;20056;-77
2021/03/10 06:38:18;;;;;;;22.38;12.93;;;;;;;1.15;71.66;98083.69;5049679;28;20076;-80
2021/03/10 06:40:51;;;;;;;21.52;13.90;;;;;;;1.37;71.30;98090.16;5051310;28;20393;-75
2021/03/10 06:43:17;;;;;;;25.08;13.45;;;;;;;1.54;70.23;98086.53;5053500;28;20485;-78
2021/03/10 06:45:43;;;;;;;26.67;14.13;;;;;;;1.72;69.58;98080.22;5053206;28;20056;-77
2021/03/10 06:48:20;;;;;;;26.52;14.40;;;;;;;1.73;68.05;98079.13;5053949;28;20453;-76
2021/03/10 06:50:46;;;;;;;42.45;16.40;;;;;;;1.52;69.42;98075.16;5054164;28;20025;-74
2021/03/10 06:53:12;;;;;;;21.77;12.07;;;;;;;1.91;67.90;98089.78;5054856;28;20025;-76
2021/03/10 06:55:45;;;;;;;30.67;14.50;;;;;;;2.04;67.24;98094.09;5051497;28;20043;-75
2021/03/10 06:58:21;;;;;;;30.77;13.50;;;;;;;1.97;67.26;98096.91;5053495;28;20029;-76
2021/03/10 07:00:46;;;;;;;30.98;15.10;;;;;;;2.08;67.08;98109.56;5049082;28;20047;-76
2021/03/10 07:03:12;;;;;;;;;;;;;;;2.11;67.20;98114.50;5033131;28;20112;-77
2021/03/10 07:05:41;;;;;;;55.20;18.95;;;;;;;2.05;67.25;98118.16;5035321;28;19921;-75
2021/03/10 07:08:06;;;;;;;57.65;17.90;;;;;;;2.35;66.59;98117.16;5034538;28;20048;-76
2021/03/10 07:10:32;;;;;;;41.72;16.02;;;;;;;2.97;64.35;98121.63;5028672;28;20025;-75
2021/03/10 07:12:59;;;;;;;26.02;15.10;;;;;;;3.12;63.50;98119.19;5028048;28;20025;-76
2021/03/10 07:15:27;;;;;;;22.48;13.05;;;;;;;3.21;61.66;98128.53;5029639;28;20033;-76
2021/03/10 07:17:53;;;;;;;51.83;18.83;;;;;;;3.72;60.72;98127.47;5051450;28;20032;-75
2021/03/10 07:20:20;;;;;;;25.20;13.85;;;;;;;4.16;58.79;98130.28;5048869;28;20029;-76
2021/03/10 07:23:01;;;;;;;22.75;14.35;;;;;;;4.51;56.21;98143.47;5047655;28;20048;-75
2021/03/10 07:25:32;;;;;;;27.70;14.98;;;;;;;5.10;55.20;98142.53;5049304;28;20059;-75
2021/03/10 07:28:03;;;;;;;41.00;18.48;;;;;;;4.93;55.26;98130.13;5049936;28;20025;-75
2021/03/10 07:30:42;;;;;;;25.52;13.95;;;;;;;5.22;54.33;98132.34;5043741;28;20489;-74
2021/03/10 07:33:13;;;;;;;27.13;14.32;;;;;;;5.15;54.16;98133.59;5050148;28;20424;-74
2021/03/10 07:35:49;;;;;;;31.13;14.65;;;;;;;5.61;53.50;98127.50;5051112;28;20025;-75
2021/03/10 07:38:15;;;;;;;28.73;14.32;;;;;;;5.67;52.70;98125.69;5049158;28;20045;-75
2021/03/10 07:40:52;;;;;;;24.17;15.80;;;;;;;5.87;52.38;98128.56;5050631;28;20314;-74
2021/03/10 07:43:18;;;;;;;22.17;14.63;;;;;;;6.26;51.97;98132.63;5053542;28;20025;-76
2021/03/10 07:45:44;;;;;;;19.52;13.43;;;;;;;7.25;49.04;98127.00;5055732;28;20021;-76
2021/03/10 07:48:10;;;;;;;20.80;12.23;;;;;;;8.10;45.62;98125.38;5053700;28;20040;-77
2021/03/10 07:50:46;;;;;;;21.15;12.57;;;;;;;8.86;43.91;98147.78;5056757;28;20495;-82
2021/03/10 07:53:12;;;;;;;23.38;14.32;;;;;;;9.03;43.90;98150.16;5049459;28;20048;-81
2021/03/10 07:55:56;;;;;;;23.42;13.82;;;;;;;11.05;39.72;98153.88;5048722;28;20478;-76
2021/03/10 07:58:29;;;;;;;18.83;13.00;;;;;;;9.99;40.51;98157.72;5048574;28;20107;-77
2021/03/10 08:00:55;;;;;;;20.25;13.02;;;;;;;10.40;40.36;98145.28;5047090;28;20036;-77
2021/03/10 08:03:31;;;;;;;25.98;13.20;;;;;;;10.66;39.21;98148.56;5048554;28;20075;-78
2021/03/10 08:06:15;;;;;;;19.42;12.07;;;;;;;11.51;37.99;98163.09;5047177;28;20029;-78
2021/03/10 08:08:43;;;;;;;19.33;11.25;;;;;;;11.44;37.34;98154.41;5046351;28;20382;-80
2021/03/10 08:11:17;;;;;;;17.00;11.10;;;;;;;12.18;36.00;98164.53;5046303;28;20082;-84
2021/03/10 08:13:44;;;;;;;17.02;11.40;;;;;;;12.49;35.20;98172.19;5049909;28;20507;-75
2021/03/10 08:16:11;;;;;;;35.63;12.18;;;;;;;12.83;34.42;98170.72;5048275;28;20116;-77
2021/03/10 08:18:45;;;;;;;17.77;10.48;;;;;;;12.41;35.23;98173.69;5049689;28;20029;-77
2021/03/10 08:21:12;;;;;;;18.50;11.10;;;;;;;12.65;33.71;98171.63;5050022;28;20040;-77
2021/03/10 08:23:38;;;;;;;14.82;10.23;;;;;;;12.30;34.54;98172.25;5051023;28;20029;-76
2021/03/10 08:26:05;;;;;;;13.82;10.32;;;;;;;12.11;34.73;98174.25;5053352;28;20031;-76
2021/03/10 08:28:39;;;;;;;16.80;10.68;;;;;;;13.16;33.44;98174.19;5053801;28;20024;-76
2021/03/10 08:31:06;;;;;;;19.38;10.98;;;;;;;14.19;31.79;98177.06;5051850;28;20032;-80
2021/03/10 08:33:44;;;;;;;32.90;14.07;;;;;;;12.22;33.76;98178.41;5051918;28;20055;-76
2021/03/10 08:36:10;;;;;;;21.88;11.13;;;;;;;12.17;35.93;98162.06;5053201;28;20025;-76
2021/03/10 08:38:36;;;;;;;17.98;11.32;;;;;;;13.10;32.61;98164.44;5053087;28;20071;-77
2021/03/10 08:41:07;;;;;;;17.58;11.30;;;;;;;11.75;34.01;98154.78;5053191;28;20040;-77
2021/03/10 08:43:32;;;;;;;18.65;10.70;;;;;;;11.96;34.84;98169.00;5053352;28;20025;-77
2021/03/10 08:45:58;;;;;;;15.70;11.20;;;;;;;11.82;34.78;98168.94;5053347;28;20051;-77
2021/03/10 08:48:25;;;;;;;18.67;11.63;;;;;;;11.43;35.14;98174.72;5051750;28;20111;-78
2021/03/10 08:50:50;;;;;;;14.95;10.18;;;;;;;13.22;32.92;98161.16;5053061;28;20041;-76
2021/03/10 08:53:17;;;;;;;21.70;11.27;;;;;;;13.65;31.41;98164.34;5051479;28;20025;-77
2021/03/10 08:55:43;;;;;;;17.23;10.82;;;;;;;12.34;32.45;98159.59;5051510;28;20029;-77
2021/03/10 08:58:09;;;;;;;15.23;9.98;;;;;;;12.77;31.75;98160.97;5051958;28;20124;-77
2021/03/10 09:00:35;;;;;;;16.65;10.32;;;;;;;13.03;31.96;98155.75;5052799;28;20466;-77
2021/03/10 09:03:17;;;;;;;22.70;11.70;;;;;;;11.59;32.90;98156.13;5053261;28;20036;-76
2021/03/10 09:05:45;;;;;;;18.58;11.15;;;;;;;12.79;32.39;98161.47;5053477;28;20465;-75
2021/03/10 09:08:13;;;;;;;15.40;10.57;;;;;;;13.23;31.15;98149.88;5053094;28;20052;-79
2021/03/10 09:10:48;;;;;;;14.65;10.07;;;;;;;12.53;31.53;98149.31;5051774;28;20035;-75
2021/03/10 09:13:14;;;;;;;15.60;10.17;;;;;;;12.20;31.82;98145.84;5053047;28;20034;-77
2021/03/10 09:15:40;;;;;;;17.63;11.40;;;;;;;13.53;30.16;98145.66;5052958;28;20040;-75
2021/03/10 09:18:08;;;;;;;15.85;10.43;;;;;;;12.48;31.19;98145.88;5052998;28;20070;-77
2021/03/10 09:20:39;;;;;;;17.92;10.80;;;;;;;12.34;31.69;98141.16;5053530;28;20033;-79
2021/03/10 09:23:05;;;;;;;18.88;11.50;;;;;;;12.82;31.38;98158.09;5052471;28;20064;-76
2021/03/10 09:25:33;;;;;;;17.73;11.27;;;;;;;13.35;30.80;98160.31;5052267;28;20028;-78
2021/03/10 09:28:04;;;;;;;17.45;9.95;;;;;;;13.43;30.75;98156.88;5052610;28;20388;-76
2021/03/10 09:30:35;;;;;;;16.25;9.25;;;;;;;14.42;28.86;98152.00;5052467;28;20044;-76
2021/03/10 09:33:01;;;;;;;14.38;9.32;;;;;;;13.70;29.78;98156.78;5054088;28;20090;-77
2021/03/10 09:35:34;;;;;;;15.98;10.52;;;;;;;12.98;30.66;98144.06;5058661;28;20493;-77
2021/03/10 09:38:10;;;;;;;17.40;10.90;;;;;;;13.70;29.58;98161.47;5053266;28;20552;-79
2021/03/10 09:40:49;;;;;;;13.38;9.48;;;;;;;13.40;29.62;98154.72;5052248;28;20036;-76
2021/03/10 09:43:20;;;;;;;15.23;10.35;;;;;;;12.69;30.49;98156.16;5052137;28;20029;-77
2021/03/10 09:45:48;;;;;;;40.70;13.63;;;;;;;13.28;30.58;98165.44;5050773;28;20499;-75
2021/03/10 09:48:19;;;;;;;14.52;9.85;;;;;;;15.24;27.42;98165.13;5052115;28;20070;-79
2021/03/10 09:50:47;;;;;;;13.30;8.05;;;;;;;14.83;27.56;98157.22;5050798;28;20062;-76
2021/03/10 09:53:24;;;;;;;13.50;10.07;;;;;;;13.92;28.22;98162.31;5051978;28;20033;-77
2021/03/10 09:55:49;;;;;;;10.93;7.15;;;;;;;14.48;27.43;98160.91;5051462;28;20033;-76
2021/03/10 09:58:15;;;;;;;14.27;9.30;;;;;;;13.64;28.46;98169.03;5053845;28;20036;-77
2021/03/10 10:00:43;;;;;;;16.52;8.20;;;;;;;13.01;29.93;98165.41;5052802;28;20083;-79
2021/03/10 10:03:09;;;;;;;13.18;8.50;;;;;;;12.59;30.21;98150.84;5051984;28;20112;-77
2021/03/10 10:05:37;;;;;;;18.20;9.57;;;;;;;12.49;30.81;98158.47;5051610;28;20388;-76
2021/03/10 10:08:05;;;;;;;13.60;8.68;;;;;;;13.36;29.06;98159.22;5054512;28;20059;-79
2021/03/10 10:10:32;;;;;;;11.85;8.95;;;;;;;13.66;29.21;98154.94;5058601;28;20021;-76
2021/03/10 10:12:58;;;;;;;14.05;8.45;;;;;;;14.91;27.46;98141.84;5051437;28;20388;-75
2021/03/10 10:15:25;;;;;;;12.13;8.57;;;;;;;14.37;27.61;98143.06;5051664;28;20025;-75
2021/03/10 10:17:56;;;;;;;13.60;9.27;;;;;;;14.16;27.91;98141.94;5051511;28;20512;-76
2021/03/10 10:20:24;;;;;;;13.60;9.70;;;;;;;14.47;27.61;98132.56;5051529;28;20036;-78
2021/03/10 10:22:53;;;;;;;12.50;8.52;;;;;;;12.75;29.71;98112.94;5050217;28;20029;-77
2021/03/10 10:25:19;;;;;;;15.15;10.07;;;;;;;13.48;29.14;98129.25;5051518;28;20025;-75
2021/03/10 10:27:46;;;;;;;15.45;10.18;;;;;;;13.33;29.25;98133.16;5051351;28;20033;-79
2021/03/10 10:30:14;;;;;;;14.52;9.07;;;;;;;14.01;28.78;98123.84;5051724;28;20029;-75
2021/03/10 10:32:42;;;;;;;13.63;9.90;;;;;;;14.72;27.74;98124.78;5051099;28;20029;-76
2021/03/10 10:35:10;;;;;;;21.60;9.73;;;;;;;15.57;26.65;98132.44;5051307;28;20698;-75
2021/03/10 10:37:36;;;;;;;22.90;11.15;;;;;;;15.12;27.91;98128.28;5055749;28;20098;-76
2021/03/10 10:40:06;;;;;;;12.65;8.38;;;;;;;14.45;28.78;98145.84;5060685;28;20540;-77
2021/03/10 10:42:31;;;;;;;14.85;10.20;;;;;;;14.66;27.97;98143.34;5054500;28;20405;-74
2021/03/10 10:44:57;;;;;;;11.75;9.10;;;;;;;15.38;27.44;98146.50;5050822;28;20029;-74
2021/03/10 10:47:23;;;;;;;16.00;10.45;;;;;;;13.81;29.12;98138.91;5049545;28;20103;-75
2021/03/10 10:49:48;;;;;;;15.68;9.90;;;;;;;14.48;28.40;98130.63;5051149;28;20024;-75
2021/03/10 10:52:13;;;;;;;13.45;9.15;;;;;;;13.78;28.66;98136.78;5051137;28;20029;-75
2021/03/10 10:54:42;;;;;;;14.85;9.80;;;;;;;13.92;29.22;98137.56;5051866;28;20094;-75
2021/03/10 10:57:07;;;;;;;27.88;11.27;;;;;;;14.23;29.15;98140.34;5051790;28;20029;-77
2021/03/10 10:59:33;;;;;;;21.65;15.65;;;;;;;14.73;28.43;98116.19;5051497;28;20029;-75
2021/03/10 11:01:58;;;;;;;13.23;8.50;;;;;;;15.18;27.23;98118.75;5050873;28;20031;-75
2021/03/10 11:04:24;;;;;;;14.43;8.27;;;;;;;14.56;27.26;98121.63;5050941;28;20032;-75
2021/03/10 11:06:49;;;;;;;17.42;9.52;;;;;;;14.43;27.93;98115.09;5052360;28;20019;-76
2021/03/10 11:09:14;;;;;;;12.32;8.88;;;;;;;15.19;26.39;98123.13;5053486;28;20057;-75
2021/03/10 11:11:40;;;;;;;22.08;11.02;;;;;;;14.33;27.55;98106.28;5055420;28;20070;-76
2021/03/10 11:14:06;;;;;;;19.55;10.43;;;;;;;14.56;27.92;98107.88;5055826;28;20059;-74
2021/03/10 11:16:31;;;;;;;16.35;10.73;;;;;;;15.00;26.35;98104.91;5050952;28;20029;-74
2021/03/10 11:18:57;;;;;;;15.35;9.73;;;;;;;13.60;28.55;98106.72;5050546;28;20174;-75
2021/03/10 11:21:23;;;;;;;14.85;8.75;;;;;;;12.77;29.76;98103.31;5052213;28;20025;-74
2021/03/10 11:23:49;;;;;;;15.50;8.95;;;;;;;12.63;30.02;98096.19;5051982;28;20389;-75
2021/03/10 11:26:14;;;;;;;16.20;9.13;;;;;;;11.82;30.99;98084.81;5053733;28;20408;-74
2021/03/10 11:28:40;;;;;;;11.75;8.45;;;;;;;11.60;32.07;98076.38;5056999;28;20040;-73